Sheridan, Oregon
Current Conditions -  °F | °C
As of 2:53 AM on Friday 24 Oct 2014 (Local Time) from KMMV Reporting Station
Haze Haze  
Wind Chill: 50°   Ceiling: 6000
Heat Index: 50°   Visibility: 6mi
Dew Point: 49°   Wind: 3mph
Humidity: 96%   Direction: 50°NE
Pressure: 30.03"   Gusts: NA
Location:  45.1°N, 123.39°W
Report Text: KMMV 240953Z AUTO 05003KT 6SM BR OVC060 10/09 A3003 RMK AO2 SLP168 T01000094
Loading
Personal Weather Stations






























Interactive Weather Map
Tropical Storm Tracking
New forecast layout! Learn more

10-Day Weather Forecast

Advertisements
Track Severe Weather on mobile